Time;durP1;ratioP1;P1;durP2;ratioP2;P2;SDS_P1;SDS_P2;PMS_P1;PMS_P2;Temp;Humidity;BMP_temperature;BMP_pressure;BME280_temperature;BME280_humidity;BME280_pressure;Samples;Min_cycle;Max_cycle;Signal;HPM_P1;HPM_P2
2022/03/18 00:00:38;;;;;;;76.90;44.05;;;;;;;24.60;54.36;103245.06;5072303;28;20035;-64
2022/03/18 00:03:04;;;;;;;76.13;45.22;;;;;;;24.59;55.00;103249.69;5072312;28;20024;-65
2022/03/18 00:05:31;;;;;;;75.32;44.65;;;;;;;24.63;55.58;103236.50;5072382;28;20483;-64
2022/03/18 00:07:56;;;;;;;80.00;45.78;;;;;;;24.60;55.72;103236.81;5072307;28;20069;-65
2022/03/18 00:10:22;;;;;;;75.75;44.70;;;;;;;24.60;55.46;103239.56;5071928;28;20503;-64
2022/03/18 00:12:48;;;;;;;78.93;46.10;;;;;;;24.59;55.20;103221.34;5090229;28;20052;-64
2022/03/18 00:15:14;;;;;;;77.25;45.63;;;;;;;24.51;55.22;103218.47;5092282;28;20032;-65
2022/03/18 00:17:41;;;;;;;77.13;44.67;;;;;;;24.55;56.12;103212.53;5092263;28;20028;-64
2022/03/18 00:20:08;;;;;;;76.72;46.38;;;;;;;24.57;56.59;103217.88;5092245;28;20028;-64
2022/03/18 00:22:34;;;;;;;73.53;43.80;;;;;;;24.55;55.78;103214.44;5092260;28;20096;-65
2022/03/18 00:25:00;;;;;;;73.25;46.03;;;;;;;24.58;56.21;103214.09;5092350;28;20145;-64
2022/03/18 00:27:28;;;;;;;74.80;45.67;;;;;;;24.59;56.40;103204.84;5092101;28;20085;-64
2022/03/18 00:29:54;;;;;;;78.32;45.70;;;;;;;24.63;56.55;103200.75;5092331;28;20254;-65
2022/03/18 00:32:21;;;;;;;78.65;46.47;;;;;;;24.61;56.72;103194.53;5091615;28;20512;-64
2022/03/18 00:34:46;;;;;;;73.32;42.95;;;;;;;24.61;56.17;103194.53;5092224;28;20020;-65
2022/03/18 00:37:11;;;;;;;81.97;46.40;;;;;;;24.53;56.87;103199.97;5091997;28;20035;-65
2022/03/18 00:39:37;;;;;;;79.75;46.65;;;;;;;24.57;56.92;103212.38;5092020;28;20024;-64
2022/03/18 00:42:03;;;;;;;75.60;43.85;;;;;;;24.63;56.87;103200.75;5077838;28;20021;-64
2022/03/18 00:44:28;;;;;;;76.32;44.38;;;;;;;24.52;56.59;103203.72;5071612;28;20024;-65
2022/03/18 00:46:54;;;;;;;83.45;45.30;;;;;;;24.53;56.61;103205.47;5071898;28;20039;-64
2022/03/18 00:52:07;;;;;;;77.72;45.53;;;;;;;24.57;57.08;103218.75;5072293;28;20048;-65
2022/03/18 00:54:33;;;;;;;74.95;44.67;;;;;;;24.61;56.88;103219.28;5075482;28;20446;-64
2022/03/18 00:56:58;;;;;;;79.07;45.95;;;;;;;24.57;56.78;103207.75;5074541;28;20052;-65
2022/03/18 00:59:24;;;;;;;68.50;41.95;;;;;;;24.59;57.94;103193.84;5075302;28;20044;-65
2022/03/18 01:01:52;;;;;;;74.80;42.40;;;;;;;24.62;57.22;103204.50;5075527;28;20016;-64
2022/03/18 01:04:22;;;;;;;71.22;41.92;;;;;;;24.66;58.22;103219.69;5074972;28;20029;-64
2022/03/18 01:06:49;;;;;;;75.30;44.53;;;;;;;24.62;58.27;103217.41;5075401;28;20028;-64
2022/03/18 01:09:15;;;;;;;76.13;44.00;;;;;;;24.59;58.17;103199.34;5075184;28;20028;-64
2022/03/18 01:11:41;;;;;;;70.25;42.00;;;;;;;24.56;58.02;103203.25;5085641;28;20024;-65
2022/03/18 01:14:06;;;;;;;77.00;43.83;;;;;;;24.54;57.99;103212.69;5095419;28;20186;-64
2022/03/18 01:16:32;;;;;;;77.75;45.55;;;;;;;24.54;57.98;103210.81;5095225;28;20038;-64
2022/03/18 01:18:57;;;;;;;82.80;45.70;;;;;;;24.56;57.75;103216.16;5095483;28;20028;-65
2022/03/18 01:21:22;;;;;;;78.80;44.72;;;;;;;24.54;57.63;103212.69;5095157;28;20058;-64
2022/03/18 01:23:47;;;;;;;78.60;43.28;;;;;;;24.41;57.06;103212.22;5095385;28;20049;-64
2022/03/18 01:26:13;;;;;;;73.82;42.85;;;;;;;24.46;57.16;103212.59;5094973;28;20046;-65
2022/03/18 01:28:39;;;;;;;75.40;46.28;;;;;;;24.41;56.65;103213.06;5095129;28;20031;-64
2022/03/18 01:31:04;;;;;;;81.75;46.85;;;;;;;24.46;56.52;103210.72;5095160;28;20027;-65
2022/03/18 01:33:29;;;;;;;83.95;47.28;;;;;;;24.36;55.74;103209.06;5094775;28;20044;-65
2022/03/18 01:35:54;;;;;;;73.75;43.78;;;;;;;24.46;56.74;103215.34;5095066;28;20487;-64
2022/03/18 01:38:20;;;;;;;79.45;46.22;;;;;;;24.38;56.50;103209.78;5094603;28;20512;-65
2022/03/18 01:40:45;;;;;;;76.25;45.65;;;;;;;24.42;56.56;103208.44;5089416;28;20055;-65
2022/03/18 01:43:11;;;;;;;80.22;47.17;;;;;;;24.43;57.03;103204.66;5074613;28;20024;-64
2022/03/18 01:45:38;;;;;;;79.22;45.30;;;;;;;24.35;55.56;103207.31;5074950;28;20415;-65
2022/03/18 01:48:04;;;;;;;77.80;45.40;;;;;;;24.36;55.52;103204.44;5074483;28;20028;-65
2022/03/18 01:50:30;;;;;;;79.63;46.42;;;;;;;24.28;55.04;103205.16;5074380;28;20028;-65
2022/03/18 01:52:57;;;;;;;75.78;45.60;;;;;;;24.37;54.51;103203.41;5074488;28;20376;-65
2022/03/18 01:55:24;;;;;;;74.15;45.22;;;;;;;24.33;56.04;103203.84;5074204;28;20021;-65
2022/03/18 01:57:49;;;;;;;81.80;45.58;;;;;;;24.36;55.77;103209.06;5074432;28;20021;-65
2022/03/18 02:00:15;;;;;;;81.70;45.50;;;;;;;24.40;55.86;103204.97;5074059;28;20074;-65
2022/03/18 02:02:40;;;;;;;81.60;45.00;;;;;;;24.43;56.15;103202.78;5074164;28;20028;-64
2022/03/18 02:05:06;;;;;;;78.43;45.28;;;;;;;24.45;56.21;103197.13;5074041;28;20028;-65
2022/03/18 02:07:32;;;;;;;77.60;45.15;;;;;;;24.37;55.72;103208.91;5074054;28;20033;-65
2022/03/18 02:09:58;;;;;;;77.47;44.17;;;;;;;24.40;56.88;103199.47;5076811;28;20031;-64
2022/03/18 02:12:23;;;;;;;75.68;45.17;;;;;;;24.43;56.37;103182.66;5093679;28;20032;-65
2022/03/18 02:14:49;;;;;;;76.93;47.00;;;;;;;24.36;55.82;103187.06;5077057;28;20029;-65
2022/03/18 02:17:16;;;;;;;79.40;46.38;;;;;;;24.35;55.09;103179.81;5094128;28;20042;-64
2022/03/18 02:19:46;;;;;;;78.97;46.08;;;;;;;24.33;55.40;103173.59;5094285;28;20031;-65
2022/03/18 02:22:14;;;;;;;79.35;46.80;;;;;;;24.41;55.56;103179.22;5093971;28;20030;-65
2022/03/18 02:24:45;;;;;;;75.80;44.67;;;;;;;24.42;55.89;103158.94;5094131;28;20024;-64
2022/03/18 02:27:11;;;;;;;75.00;44.30;;;;;;;24.47;56.01;103156.56;5094013;28;20379;-65
2022/03/18 02:29:36;;;;;;;75.70;44.17;;;;;;;24.36;55.69;103154.94;5093976;28;20040;-65
2022/03/18 02:32:03;;;;;;;69.70;43.42;;;;;;;24.40;55.39;103155.50;5093774;28;20039;-65
2022/03/18 02:34:29;;;;;;;80.72;44.55;;;;;;;24.40;55.54;103174.72;5093671;28;20036;-65
2022/03/18 02:36:55;;;;;;;75.57;44.13;;;;;;;24.38;55.20;103179.53;5093926;28;20034;-65
2022/03/18 02:39:20;;;;;;;78.55;45.70;;;;;;;24.42;56.24;103181.81;5091936;28;20059;-64
2022/03/18 02:41:47;;;;;;;82.00;45.35;;;;;;;24.38;55.86;103187.78;5094082;28;20044;-65
2022/03/18 02:44:12;;;;;;;78.53;45.45;;;;;;;24.42;56.04;103186.44;5093533;28;20026;-65
2022/03/18 02:46:38;;;;;;;76.32;44.03;;;;;;;24.39;55.90;103182.13;5093656;28;20115;-65
2022/03/18 02:49:05;;;;;;;78.82;44.50;;;;;;;24.40;56.27;103191.22;5093804;28;20027;-65
2022/03/18 02:51:31;;;;;;;78.82;43.78;;;;;;;24.37;56.24;103194.28;5093352;28;20478;-65
2022/03/18 02:53:57;;;;;;;70.70;42.03;;;;;;;24.41;56.90;103191.06;5093636;28;20516;-65
2022/03/18 02:56:23;;;;;;;76.25;43.85;;;;;;;24.41;56.91;103191.06;5093197;28;20031;-65
2022/03/18 02:58:49;;;;;;;70.97;42.60;;;;;;;24.40;55.91;103194.84;5093559;28;20024;-64
2022/03/18 03:01:14;;;;;;;81.47;45.10;;;;;;;24.42;57.04;103186.44;5093308;28;20027;-65
2022/03/18 03:03:40;;;;;;;78.40;46.20;;;;;;;24.34;56.69;103186.34;5093319;28;20095;-65
2022/03/18 03:08:48;;;;;;;78.47;44.33;;;;;;;24.40;56.72;103188.47;5086900;28;20553;-65
2022/03/18 03:11:14;;;;;;;70.43;41.63;;;;;;;24.43;56.64;103189.03;5073327;28;20032;-65
2022/03/18 03:13:39;;;;;;;74.38;43.97;;;;;;;24.39;57.23;103197.75;5072871;28;20103;-65
2022/03/18 03:16:05;;;;;;;74.30;43.28;;;;;;;24.46;57.00;103198.84;5072083;28;20029;-65
2022/03/18 03:18:30;;;;;;;72.55;42.70;;;;;;;24.39;57.58;103200.50;5072955;28;20017;-65
2022/03/18 03:20:56;;;;;;;79.03;46.58;;;;;;;24.34;57.03;103200.09;5072898;28;20048;-65
2022/03/18 03:23:23;;;;;;;76.28;44.20;;;;;;;24.34;57.71;103205.56;5072585;28;20566;-65
2022/03/18 03:25:49;;;;;;;81.50;47.38;;;;;;;24.34;56.49;103205.56;5072793;28;20420;-65
2022/03/18 03:28:15;;;;;;;71.25;42.15;;;;;;;24.41;57.43;103201.22;5072350;28;20024;-64
2022/03/18 03:30:40;;;;;;;85.18;47.15;;;;;;;24.34;57.67;103200.94;5071575;28;20017;-65
2022/03/18 03:33:05;;;;;;;79.47;45.28;;;;;;;24.38;57.22;103201.53;5072520;28;20076;-65
2022/03/18 03:35:31;;;;;;;80.65;44.42;;;;;;;24.38;57.50;103201.53;5072419;28;20037;-64
2022/03/18 03:37:56;;;;;;;75.47;43.92;;;;;;;24.39;58.50;103197.75;5073791;28;20025;-65
2022/03/18 03:40:22;;;;;;;77.43;43.17;;;;;;;24.42;58.18;103208.44;5092067;28;20046;-65
2022/03/18 03:42:47;;;;;;;77.80;44.60;;;;;;;24.38;57.64;103201.53;5092490;28;20023;-65
2022/03/18 03:45:13;;;;;;;86.53;45.88;;;;;;;24.41;58.36;103201.22;5092560;28;20114;-65
2022/03/18 03:47:40;;;;;;;80.30;45.30;;;;;;;24.37;58.60;103210.78;5092564;28;20035;-65
2022/03/18 03:50:07;;;;;;;81.00;45.95;;;;;;;24.44;58.13;103203.63;5092408;28;20479;-64
2022/03/18 03:52:34;;;;;;;76.28;43.15;;;;;;;24.41;59.00;103207.56;5092308;28;20028;-65
2022/03/18 03:55:00;;;;;;;75.75;44.70;;;;;;;24.40;58.74;103221.47;5092614;28;20042;-64
2022/03/18 03:57:25;;;;;;;78.85;45.03;;;;;;;24.38;58.71;103221.63;5092378;28;20417;-65
2022/03/18 03:59:51;;;;;;;73.60;43.75;;;;;;;24.35;59.79;103223.81;5092559;28;20027;-65
2022/03/18 04:02:16;;;;;;;75.47;43.13;;;;;;;24.34;58.92;103208.31;5092154;28;20061;-65
2022/03/18 04:04:41;;;;;;;73.75;42.92;;;;;;;24.37;59.15;103210.78;5076204;28;20090;-65
2022/03/18 04:07:08;;;;;;;71.55;40.53;;;;;;;24.36;58.71;103198.94;5092402;28;20379;-65
2022/03/18 04:09:33;;;;;;;70.63;42.42;;;;;;;24.28;58.20;103240.03;5092303;28;20024;-65
2022/03/18 04:11:58;;;;;;;71.50;40.78;;;;;;;24.30;57.77;103203.16;5092336;28;20023;-65
2022/03/18 04:14:24;;;;;;;75.00;44.30;;;;;;;24.27;57.95;103205.31;5092021;28;20507;-64
2022/03/18 04:16:49;;;;;;;71.82;41.78;;;;;;;24.25;57.49;103196.34;5092251;28;20020;-65
2022/03/18 04:19:14;;;;;;;79.93;44.83;;;;;;;24.28;57.03;103207.03;5092172;28;20530;-65
2022/03/18 04:21:41;;;;;;;77.90;45.08;;;;;;;24.25;57.15;103208.22;5092223;28;20017;-65
2022/03/18 04:24:06;;;;;;;73.90;43.22;;;;;;;24.23;56.02;103213.00;5092422;28;20020;-65
2022/03/18 04:26:32;;;;;;;75.90;43.35;;;;;;;24.25;56.22;103224.72;5093206;28;20283;-65
2022/03/18 04:28:58;;;;;;;74.60;42.88;;;;;;;24.21;55.74;103226.03;5096693;28;20034;-64
2022/03/18 04:31:23;;;;;;;76.40;44.70;;;;;;;24.15;55.93;103221.13;5095814;28;20387;-66
2022/03/18 04:33:48;;;;;;;76.95;45.47;;;;;;;24.20;55.25;103220.72;5085668;28;20043;-65
2022/03/18 04:36:13;;;;;;;69.38;42.00;;;;;;;24.14;55.35;103216.66;5075604;28;20035;-65
2022/03/18 04:38:39;;;;;;;78.85;45.95;;;;;;;24.21;55.14;103216.94;5075848;28;20120;-65
2022/03/18 04:41:04;;;;;;;84.57;46.08;;;;;;;24.16;55.29;103220.13;5075912;28;20028;-65
2022/03/18 04:43:29;;;;;;;76.20;45.60;;;;;;;24.20;55.94;103226.19;5075608;28;20024;-65
2022/03/18 04:45:55;;;;;;;78.13;44.70;;;;;;;24.18;55.62;103223.56;5075820;28;20464;-65
2022/03/18 04:48:20;;;;;;;74.55;43.92;;;;;;;24.23;56.19;103225.88;5075273;28;20036;-65
2022/03/18 04:50:46;;;;;;;72.75;41.72;;;;;;;24.26;55.66;103231.06;5075741;28;20028;-65
2022/03/18 04:53:12;;;;;;;81.63;45.70;;;;;;;24.23;55.27;103226.75;5075394;28;20020;-65
2022/03/18 04:55:37;;;;;;;76.45;43.15;;;;;;;24.20;55.74;103232.56;5075497;28;20028;-64
2022/03/18 04:58:02;;;;;;;73.38;44.10;;;;;;;24.19;55.16;103241.81;5075851;28;20147;-65
2022/03/18 05:00:28;;;;;;;71.32;42.78;;;;;;;24.20;55.76;103243.56;5075117;28;20142;-65
2022/03/18 05:02:55;;;;;;;69.50;40.40;;;;;;;24.41;55.96;103235.06;5077484;28;20463;-64
2022/03/18 05:05:21;;;;;;;70.38;42.35;;;;;;;24.56;55.64;103239.03;5095440;28;20420;-65
2022/03/18 05:07:50;;;;;;;63.45;38.97;;;;;;;24.63;55.00;103249.38;5095696;28;20028;-65
2022/03/18 05:10:17;;;;;;;70.80;40.22;;;;;;;24.70;55.53;103256.88;5095217;28;20487;-65
2022/03/18 05:12:42;;;;;;;70.43;39.35;;;;;;;24.72;55.37;103237.47;5095453;28;20035;-66
2022/03/18 05:15:09;;;;;;;67.88;40.55;;;;;;;24.65;55.47;103239.09;5095388;28;20402;-65
2022/03/18 05:17:35;;;;;;;67.43;39.83;;;;;;;24.68;54.74;103236.88;5095672;28;20034;-65
2022/03/18 05:20:01;;;;;;;62.60;37.17;;;;;;;24.71;54.48;103242.09;5095450;28;20028;-65
2022/03/18 05:22:26;;;;;;;68.60;39.15;;;;;;;24.72;54.83;103241.06;5094934;28;20016;-65
2022/03/18 05:24:52;;;;;;;64.03;37.58;;;;;;;24.74;54.88;103244.53;5095369;28;20028;-65
2022/03/18 05:27:18;;;;;;;60.03;37.35;;;;;;;24.75;55.04;103248.16;5094917;28;20475;-65
2022/03/18 05:29:44;;;;;;;67.18;39.13;;;;;;;24.73;54.82;103262.06;5095310;28;20122;-65
2022/03/18 05:32:10;;;;;;;61.63;37.28;;;;;;;24.76;54.18;103259.00;5094530;28;20044;-65
2022/03/18 05:34:35;;;;;;;63.47;38.10;;;;;;;24.75;54.92;103259.16;5075751;28;20547;-65
2022/03/18 05:37:00;;;;;;;67.05;39.97;;;;;;;24.70;55.21;103262.38;5074813;28;20111;-65
2022/03/18 05:39:26;;;;;;;63.70;37.88;;;;;;;24.78;54.06;103262.44;5073735;28;20025;-65
2022/03/18 05:41:51;;;;;;;68.47;39.38;;;;;;;24.66;54.35;103249.94;5074736;28;20038;-65
2022/03/18 05:44:17;;;;;;;65.90;38.47;;;;;;;24.82;54.53;103261.09;5074235;28;20016;-64
2022/03/18 05:46:42;;;;;;;69.05;40.83;;;;;;;24.84;55.19;103261.81;5074592;28;20020;-66
2022/03/18 05:49:07;;;;;;;69.88;41.60;;;;;;;24.86;54.59;103276.31;5074585;28;20471;-65
2022/03/18 05:51:33;;;;;;;65.18;38.70;;;;;;;24.75;54.55;103265.53;5073104;28;20050;-64
2022/03/18 05:53:58;;;;;;;65.85;38.45;;;;;;;24.78;55.34;103270.69;5073329;28;20032;-66
2022/03/18 05:59:09;;;;;;;66.35;38.05;;;;;;;24.88;55.26;103276.16;5074440;28;20101;-65
2022/03/18 06:01:37;;;;;;;61.47;37.70;;;;;;;24.87;55.29;103279.91;5074324;28;20042;-65
2022/03/18 06:04:03;;;;;;;61.58;37.35;;;;;;;24.78;54.53;103287.22;5088348;28;20107;-65
2022/03/18 06:06:28;;;;;;;72.32;38.50;;;;;;;24.73;54.77;103292.31;5094308;28;20425;-65
2022/03/18 06:11:49;;;;;;;69.37;39.77;;;;;;;24.77;55.59;103284.63;5094361;28;20255;-65
2022/03/18 06:14:16;;;;;;;63.38;37.60;;;;;;;24.83;54.73;103295.00;5094222;28;20268;-65
2022/03/18 06:16:42;;;;;;;65.93;38.85;;;;;;;24.85;54.83;103288.31;5094333;28;20035;-65
2022/03/18 06:19:09;;;;;;;68.68;39.03;;;;;;;24.79;54.52;103288.94;5094251;28;20039;-64
2022/03/18 06:21:34;;;;;;;68.22;39.38;;;;;;;24.89;54.73;103283.38;5094122;28;20016;-65
2022/03/18 06:23:59;;;;;;;61.67;37.50;;;;;;;24.86;56.03;103283.69;5092748;28;20489;-65
2022/03/18 06:26:25;;;;;;;64.63;39.90;;;;;;;24.82;55.46;103293.25;5093931;28;20012;-64
2022/03/18 06:28:50;;;;;;;65.75;37.30;;;;;;;24.87;55.29;103288.19;5094168;28;20103;-65
2022/03/18 06:31:15;;;;;;;67.10;38.22;;;;;;;24.74;56.08;103288.53;5093831;28;20043;-65
2022/03/18 06:33:44;;;;;;;69.97;38.40;;;;;;;24.74;55.61;103285.81;5080050;28;20131;-64
2022/03/18 06:36:11;;;;;;;65.65;37.72;;;;;;;24.68;55.40;103289.16;5073839;28;20024;-65
2022/03/18 06:38:36;;;;;;;68.07;39.65;;;;;;;24.70;54.94;103289.03;5073588;28;20032;-65
2022/03/18 06:41:01;;;;;;;65.60;39.47;;;;;;;24.75;54.91;103293.03;5071895;28;20035;-64
2022/03/18 06:43:26;;;;;;;66.65;38.70;;;;;;;24.72;54.14;103298.84;5062753;28;20025;-66
2022/03/18 06:45:52;;;;;;;72.75;40.40;;;;;;;24.57;54.23;103301.25;5065522;28;20020;-64
2022/03/18 06:48:17;;;;;;;77.20;44.35;;;;;;;24.57;53.28;103303.13;5064199;28;20036;-64
2022/03/18 06:50:42;;;;;;;71.75;41.75;;;;;;;24.56;54.05;103304.16;5058788;28;20028;-65
2022/03/18 06:53:08;;;;;;;78.25;43.80;;;;;;;24.52;53.62;103308.22;5068963;28;20025;-64
2022/03/18 06:55:33;;;;;;;67.93;39.47;;;;;;;24.47;53.08;103311.44;5069441;28;20034;-64
2022/03/18 06:57:58;;;;;;;74.65;41.63;;;;;;;24.46;52.69;103312.44;5073394;28;20032;-65
2022/03/18 07:00:24;;;;;;;81.80;43.75;;;;;;;24.44;52.51;103311.75;5054986;28;20396;-64
2022/03/18 07:02:49;;;;;;;77.75;42.53;;;;;;;24.47;52.93;103316.94;5053338;28;20392;-65
2022/03/18 07:05:14;;;;;;;79.22;45.03;;;;;;;24.45;53.33;103318.97;5068664;28;20039;-65
2022/03/18 07:07:40;;;;;;;78.40;43.72;;;;;;;24.57;54.73;103330.66;5072805;28;20016;-64
2022/03/18 07:10:06;;;;;;;78.45;43.10;;;;;;;24.57;55.11;103333.41;5072889;28;20040;-65
2022/03/18 07:12:31;;;;;;;84.22;44.72;;;;;;;24.55;54.56;103335.44;5065337;28;20036;-64
2022/03/18 07:14:56;;;;;;;74.70;41.95;;;;;;;24.58;54.29;103335.13;5052790;28;20104;-64
2022/03/18 07:20:06;;;;;;;73.53;41.92;;;;;;;24.59;53.97;103339.59;5059154;28;20122;-65
2022/03/18 07:22:31;;;;;;;76.45;43.45;;;;;;;24.59;53.92;103334.09;5060468;28;20724;-64
2022/03/18 07:24:57;;;;;;;72.70;40.13;;;;;;;24.58;54.28;103346.13;5072525;28;20028;-65
2022/03/18 07:27:22;;;;;;;73.40;41.13;;;;;;;24.60;53.84;103344.09;5069602;28;20380;-64
2022/03/18 07:29:47;;;;;;;79.82;43.22;;;;;;;24.60;54.41;103349.59;5063006;28;20024;-64
2022/03/18 07:32:12;;;;;;;72.47;40.10;;;;;;;24.62;54.17;103347.53;5068943;28;20082;-65
2022/03/18 07:34:38;;;;;;;71.43;40.58;;;;;;;24.64;53.50;103356.50;5069865;28;20039;-64
2022/03/18 07:37:03;;;;;;;75.25;41.60;;;;;;;24.60;53.12;103355.94;5071651;28;20111;-67
2022/03/18 07:39:29;;;;;;;82.60;45.33;;;;;;;24.55;53.13;103354.69;5070499;28;20471;-64
2022/03/18 07:41:54;;;;;;;79.30;42.80;;;;;;;24.52;53.59;103365.97;5066953;28;20029;-64
2022/03/18 07:44:19;;;;;;;83.78;43.65;;;;;;;24.56;53.85;103364.66;5071361;28;20033;-64
2022/03/18 07:46:44;;;;;;;74.13;42.20;;;;;;;24.51;52.92;103361.50;5062374;28;20036;-65
2022/03/18 07:49:11;;;;;;;69.25;39.15;;;;;;;24.54;53.83;103361.22;5066621;28;20021;-63
2022/03/18 07:51:36;;;;;;;77.45;41.90;;;;;;;24.42;51.37;103373.41;5069297;28;20074;-65
2022/03/18 07:54:02;;;;;;;72.88;39.97;;;;;;;24.42;52.50;103368.78;5067299;28;20422;-64
2022/03/18 07:56:27;;;;;;;86.85;45.08;;;;;;;24.42;51.85;103373.41;5065626;28;20123;-64
2022/03/18 07:58:54;;;;;;;81.57;44.33;;;;;;;24.43;52.19;103386.16;5060745;28;20428;-64
2022/03/18 08:01:19;;;;;;;77.38;44.00;;;;;;;24.46;52.65;103386.69;5070684;28;20027;-64
2022/03/18 08:03:44;;;;;;;76.45;41.05;;;;;;;24.47;52.07;103376.56;5060908;28;20107;-64
2022/03/18 08:06:10;;;;;;;83.00;42.90;;;;;;;24.41;51.61;103382.69;5052483;28;20021;-64
2022/03/18 08:08:35;;;;;;;76.40;42.45;;;;;;;24.39;52.13;103373.72;5052008;28;20029;-64
2022/03/18 08:11:01;;;;;;;80.13;43.38;;;;;;;24.39;52.34;103384.72;5056526;28;20047;-64
2022/03/18 08:13:26;;;;;;;80.35;42.67;;;;;;;24.40;51.76;103390.06;5059738;28;20021;-64
2022/03/18 08:15:52;;;;;;;77.78;43.60;;;;;;;24.42;52.66;103389.91;5068159;28;20459;-64
2022/03/18 08:18:19;;;;;;;78.57;43.67;;;;;;;24.44;51.82;103404.38;5071674;28;20376;-64
2022/03/18 08:20:49;;;;;;;84.78;45.15;;;;;;;24.43;52.06;103399.91;5062369;28;20024;-64
2022/03/18 08:23:14;;;;;;;84.95;44.30;;;;;;;24.44;51.93;103408.00;5064266;28;20020;-64
2022/03/18 08:25:40;;;;;;;71.43;41.45;;;;;;;24.42;52.14;103414.66;5071141;28;20042;-64
2022/03/18 08:28:07;;;;;;;78.13;42.95;;;;;;;24.41;52.08;103410.19;5056628;28;20147;-64
2022/03/18 08:30:33;;;;;;;80.43;43.97;;;;;;;24.43;51.82;103409.00;5061718;28;20059;-64
2022/03/18 08:32:58;;;;;;;83.40;43.13;;;;;;;24.42;51.52;103417.41;5062627;28;20052;-64
2022/03/18 08:35:24;;;;;;;75.80;41.30;;;;;;;24.46;53.24;103421.59;5062446;28;20044;-65
2022/03/18 08:37:58;;;;;;;75.50;41.50;;;;;;;24.43;52.67;103421.91;5064304;28;20036;-63
2022/03/18 08:40:27;;;;;;;79.18;42.42;;;;;;;24.40;52.39;103427.69;5063476;28;20115;-64
2022/03/18 08:42:54;;;;;;;77.95;41.78;;;;;;;24.41;52.84;103423.94;5066436;28;20024;-64
2022/03/18 08:45:20;;;;;;;79.47;41.97;;;;;;;24.46;52.02;103432.59;5065808;28;20480;-63
2022/03/18 08:47:46;;;;;;;75.80;42.15;;;;;;;24.49;52.26;103424.03;5062204;28;20621;-63
2022/03/18 08:50:13;;;;;;;80.75;42.63;;;;;;;24.47;52.54;103428.81;5051745;28;20070;-65
2022/03/18 08:52:39;;;;;;;80.82;42.58;;;;;;;24.44;53.57;103437.38;5056727;28;20039;-64
2022/03/18 08:55:05;;;;;;;80.47;42.97;;;;;;;24.47;52.64;103429.69;5057652;28;20036;-64
2022/03/18 08:57:33;;;;;;;79.68;40.30;;;;;;;24.43;53.47;103436.50;5058649;28;20034;-64
2022/03/18 08:59:59;;;;;;;86.80;42.95;;;;;;;24.48;52.93;103444.31;5063515;28;20107;-64
2022/03/18 09:02:24;;;;;;;73.57;41.50;;;;;;;24.42;53.87;103451.28;5064847;28;20032;-64
2022/03/18 09:04:51;;;;;;;84.03;43.58;;;;;;;24.48;53.03;103445.16;5057287;28;20028;-64
2022/03/18 09:07:19;;;;;;;79.68;41.90;;;;;;;24.41;52.90;103449.53;5064722;28;20032;-64
2022/03/18 09:09:45;;;;;;;79.45;43.33;;;;;;;24.41;52.89;103445.94;5052729;28;20030;-65
2022/03/18 09:12:10;;;;;;;77.78;40.42;;;;;;;24.42;53.50;103458.66;5054418;28;20458;-64
2022/03/18 09:14:35;;;;;;;76.20;41.97;;;;;;;24.44;52.76;103462.13;5068295;28;20028;-64
2022/03/18 09:17:01;;;;;;;83.20;43.70;;;;;;;24.40;53.30;103452.44;5049650;28;20361;-64
2022/03/18 09:19:26;;;;;;;76.28;41.53;;;;;;;24.44;53.26;103453.88;5049862;28;20061;-64
2022/03/18 09:21:52;;;;;;;71.00;37.97;;;;;;;24.46;53.53;103458.19;5066019;28;20466;-64
2022/03/18 09:24:18;;;;;;;83.90;42.10;;;;;;;24.43;52.90;103460.38;5050014;28;20472;-64
2022/03/18 09:26:44;;;;;;;76.95;41.40;;;;;;;24.47;53.15;103453.56;5055488;28;20051;-63
2022/03/18 09:29:09;;;;;;;72.50;41.28;;;;;;;24.40;53.33;103453.31;5054848;28;20029;-64
2022/03/18 09:31:36;;;;;;;78.40;43.63;;;;;;;24.44;52.93;103464.88;5062715;28;20036;-64
2022/03/18 09:34:01;;;;;;;83.50;41.88;;;;;;;24.41;52.20;103465.16;5069407;28;20215;-63
2022/03/18 09:36:26;;;;;;;79.10;42.95;;;;;;;24.51;53.19;103460.50;5068317;28;20032;-64
2022/03/18 09:38:52;;;;;;;71.40;41.03;;;;;;;24.59;52.88;103464.25;5069291;28;20585;-64
2022/03/18 09:41:17;;;;;;;75.78;38.85;;;;;;;24.56;53.55;103463.69;5068458;28;20078;-63
2022/03/18 09:43:43;;;;;;;69.13;37.42;;;;;;;24.55;53.51;103464.69;5069278;28;20079;-64
2022/03/18 09:46:11;;;;;;;71.40;39.13;;;;;;;24.56;52.95;103463.69;5067910;28;20036;-63
2022/03/18 09:48:37;;;;;;;74.07;38.47;;;;;;;24.54;53.43;103461.09;5061850;28;20063;-64
2022/03/18 09:51:04;;;;;;;69.25;36.95;;;;;;;24.54;53.69;103460.22;5056955;28;20037;-63
2022/03/18 09:53:29;;;;;;;67.97;37.30;;;;;;;24.53;53.63;103462.09;5067153;28;20578;-64
2022/03/18 09:55:55;;;;;;;66.13;35.35;;;;;;;24.59;53.26;103461.50;5062723;28;20040;-63
2022/03/18 09:58:24;;;;;;;66.55;37.58;;;;;;;24.61;53.36;103466.84;5064258;28;20055;-64
2022/03/18 10:00:57;;;;;;;62.00;35.58;;;;;;;24.60;53.71;103471.47;5061409;28;20572;-63
2022/03/18 10:03:34;;;;;;;72.03;37.95;;;;;;;24.60;53.08;103478.84;5055591;28;20302;-64
2022/03/18 10:06:00;;;;;;;67.28;36.80;;;;;;;24.63;53.20;103481.31;5063621;28;20036;-64
2022/03/18 10:08:34;;;;;;;70.32;35.88;;;;;;;24.62;53.53;103474.06;5068542;28;20107;-64
2022/03/18 10:10:59;;;;;;;;;;;;;;;24.65;53.43;103487.53;5067092;28;20025;-64
2022/03/18 10:13:25;;;;;;;65.93;35.47;;;;;;;24.58;53.49;103480.91;5066651;28;19920;-64
2022/03/18 10:15:50;;;;;;;63.95;35.60;;;;;;;24.59;52.93;103477.13;5066523;28;20284;-64
2022/03/18 10:18:16;;;;;;;71.38;37.13;;;;;;;24.61;53.07;103477.84;5061158;28;20033;-63
2022/03/18 10:20:51;;;;;;;69.13;37.08;;;;;;;24.55;53.06;103472.94;5064836;28;20375;-65
2022/03/18 10:23:16;;;;;;;70.45;36.03;;;;;;;24.62;52.81;103474.06;5048786;28;20037;-64
2022/03/18 10:25:53;;;;;;;59.87;34.23;;;;;;;24.68;53.10;103484.47;5056706;28;20117;-64
2022/03/18 10:28:36;;;;;;;72.80;37.33;;;;;;;24.58;53.11;103484.50;5056855;28;20269;-64
2022/03/18 10:31:19;;;;;;;61.08;34.25;;;;;;;24.60;53.30;103492.63;5056046;28;20028;-64
2022/03/18 10:39:25;;;;;;;67.60;34.05;;;;;;;24.62;54.14;103500.72;5053203;28;20044;-64
2022/03/18 10:41:51;;;;;;;66.25;36.00;;;;;;;24.58;52.74;103491.91;5062833;28;20028;-66
2022/03/18 10:44:17;;;;;;;70.07;35.28;;;;;;;24.55;53.67;103492.19;5057082;28;20392;-64
2022/03/18 10:46:43;;;;;;;67.70;34.33;;;;;;;24.58;52.71;103500.16;5067718;28;20044;-64
2022/03/18 10:49:10;;;;;;;60.38;33.90;;;;;;;24.63;53.87;103502.44;5055755;28;20640;-63
2022/03/18 10:51:37;;;;;;;66.22;35.58;;;;;;;24.61;53.94;103499.84;5065249;28;20098;-64
2022/03/18 10:54:03;;;;;;;63.20;34.13;;;;;;;24.61;54.15;103505.34;5065435;28;20394;-63
2022/03/18 10:56:28;;;;;;;63.22;33.83;;;;;;;24.57;52.22;103510.28;5067107;28;20028;-61
2022/03/18 10:58:54;;;;;;;64.80;35.67;;;;;;;24.50;52.24;103509.13;5066710;28;20036;-63
2022/03/18 11:01:22;;;;;;;64.72;35.95;;;;;;;24.60;52.56;103511.88;5067063;28;20021;-63
2022/03/18 11:03:48;;;;;;;63.60;34.08;;;;;;;24.48;51.62;103510.31;5067978;28;20016;-63
2022/03/18 11:06:16;;;;;;;60.92;33.60;;;;;;;24.50;52.27;103519.25;5065415;28;20032;-63
2022/03/18 11:08:49;;;;;;;65.68;34.08;;;;;;;24.55;53.61;103522.47;5060037;28;20025;-64
2022/03/18 11:11:18;;;;;;;69.15;35.85;;;;;;;24.44;52.50;103523.47;5062752;28;20033;-63
2022/03/18 11:14:04;;;;;;;69.47;36.33;;;;;;;24.42;52.36;103527.41;5051261;28;20032;-63
2022/03/18 11:16:36;;;;;;;65.82;34.92;;;;;;;24.48;52.02;103521.31;5052146;28;20404;-63
2022/03/18 11:19:06;;;;;;;62.92;33.92;;;;;;;24.49;51.41;103531.28;5052320;28;20066;-62
2022/03/18 11:21:41;;;;;;;58.47;32.75;;;;;;;24.49;51.44;103528.53;5066178;28;20067;-63
2022/03/18 11:24:11;;;;;;;71.45;34.17;;;;;;;24.48;51.20;103527.66;5064994;28;20111;-62